sensor_id;sensor_type;location;lat;lon;timestamp;P1;durP1;ratioP1;P2;durP2;ratioP2
12145;SDS011;6136;47.032;15.398;2023-07-28T00:00:13;3.17;;;2.20;;
12145;SDS011;6136;47.032;15.398;2023-07-28T00:02:42;3.93;;;2.53;;
12145;SDS011;6136;47.032;15.398;2023-07-28T00:05:10;3.40;;;2.40;;
12145;SDS011;6136;47.032;15.398;2023-07-28T00:07:38;3.57;;;3.00;;
12145;SDS011;6136;47.032;15.398;2023-07-28T00:10:08;2.93;;;2.60;;
12145;SDS011;6136;47.032;15.398;2023-07-28T00:12:37;8.27;;;3.20;;
12145;SDS011;6136;47.032;15.398;2023-07-28T00:15:05;3.47;;;2.70;;
12145;SDS011;6136;47.032;15.398;2023-07-28T00:17:34;2.80;;;2.50;;
12145;SDS011;6136;47.032;15.398;2023-07-28T00:20:03;2.42;;;2.22;;
12145;SDS011;6136;47.032;15.398;2023-07-28T00:22:32;5.43;;;2.47;;
12145;SDS011;6136;47.032;15.398;2023-07-28T00:25:00;3.03;;;2.20;;
12145;SDS011;6136;47.032;15.398;2023-07-28T00:27:30;2.80;;;2.60;;
12145;SDS011;6136;47.032;15.398;2023-07-28T00:29:58;5.25;;;2.80;;
12145;SDS011;6136;47.032;15.398;2023-07-28T00:32:27;3.80;;;2.88;;
12145;SDS011;6136;47.032;15.398;2023-07-28T00:34:55;4.37;;;2.70;;
12145;SDS011;6136;47.032;15.398;2023-07-28T00:37:23;5.03;;;2.70;;
12145;SDS011;6136;47.032;15.398;2023-07-28T00:39:51;2.80;;;2.55;;
12145;SDS011;6136;47.032;15.398;2023-07-28T00:42:20;5.50;;;2.83;;
12145;SDS011;6136;47.032;15.398;2023-07-28T00:44:49;4.30;;;2.70;;
12145;SDS011;6136;47.032;15.398;2023-07-28T00:47:18;4.37;;;2.10;;
12145;SDS011;6136;47.032;15.398;2023-07-28T00:49:46;3.13;;;2.43;;
12145;SDS011;6136;47.032;15.398;2023-07-28T00:52:14;4.90;;;2.20;;
12145;SDS011;6136;47.032;15.398;2023-07-28T00:54:42;2.60;;;2.40;;
12145;SDS011;6136;47.032;15.398;2023-07-28T00:57:10;3.60;;;2.60;;
12145;SDS011;6136;47.032;15.398;2023-07-28T00:59:39;3.20;;;2.40;;
12145;SDS011;6136;47.032;15.398;2023-07-28T01:02:09;3.30;;;2.50;;
12145;SDS011;6136;47.032;15.398;2023-07-28T01:04:37;2.40;;;2.20;;
12145;SDS011;6136;47.032;15.398;2023-07-28T01:07:07;5.00;;;2.77;;
12145;SDS011;6136;47.032;15.398;2023-07-28T01:09:40;3.43;;;2.33;;
12145;SDS011;6136;47.032;15.398;2023-07-28T01:12:14;3.50;;;3.07;;
12145;SDS011;6136;47.032;15.398;2023-07-28T01:14:43;3.83;;;2.47;;
12145;SDS011;6136;47.032;15.398;2023-07-28T01:17:12;3.33;;;2.90;;
12145;SDS011;6136;47.032;15.398;2023-07-28T01:19:41;7.47;;;2.57;;
12145;SDS011;6136;47.032;15.398;2023-07-28T01:22:19;2.58;;;2.35;;
12145;SDS011;6136;47.032;15.398;2023-07-28T01:25:06;4.27;;;2.67;;
12145;SDS011;6136;47.032;15.398;2023-07-28T01:27:44;2.90;;;2.60;;
12145;SDS011;6136;47.032;15.398;2023-07-28T01:30:13;2.80;;;2.60;;
12145;SDS011;6136;47.032;15.398;2023-07-28T01:32:41;4.70;;;2.30;;
12145;SDS011;6136;47.032;15.398;2023-07-28T01:35:09;3.53;;;2.70;;
12145;SDS011;6136;47.032;15.398;2023-07-28T01:37:38;2.70;;;2.27;;
12145;SDS011;6136;47.032;15.398;2023-07-28T01:40:06;3.37;;;2.93;;
12145;SDS011;6136;47.032;15.398;2023-07-28T01:42:36;4.93;;;3.13;;
12145;SDS011;6136;47.032;15.398;2023-07-28T01:45:06;3.33;;;2.83;;
12145;SDS011;6136;47.032;15.398;2023-07-28T01:47:35;4.40;;;2.93;;
12145;SDS011;6136;47.032;15.398;2023-07-28T01:50:03;5.33;;;3.03;;
12145;SDS011;6136;47.032;15.398;2023-07-28T01:52:32;4.30;;;2.90;;
12145;SDS011;6136;47.032;15.398;2023-07-28T01:55:00;5.63;;;3.00;;
12145;SDS011;6136;47.032;15.398;2023-07-28T01:57:31;2.90;;;2.60;;
12145;SDS011;6136;47.032;15.398;2023-07-28T02:00:01;3.93;;;2.90;;
12145;SDS011;6136;47.032;15.398;2023-07-28T02:02:40;6.47;;;2.77;;
12145;SDS011;6136;47.032;15.398;2023-07-28T02:05:08;4.10;;;2.47;;
12145;SDS011;6136;47.032;15.398;2023-07-28T02:07:36;3.87;;;3.03;;
12145;SDS011;6136;47.032;15.398;2023-07-28T02:10:05;4.70;;;2.90;;
12145;SDS011;6136;47.032;15.398;2023-07-28T02:12:33;3.80;;;2.40;;
12145;SDS011;6136;47.032;15.398;2023-07-28T02:15:02;5.50;;;3.00;;
12145;SDS011;6136;47.032;15.398;2023-07-28T02:17:30;2.67;;;2.47;;
12145;SDS011;6136;47.032;15.398;2023-07-28T02:19:59;4.20;;;2.67;;
12145;SDS011;6136;47.032;15.398;2023-07-28T02:22:29;3.47;;;2.90;;
12145;SDS011;6136;47.032;15.398;2023-07-28T02:24:58;3.90;;;2.73;;
12145;SDS011;6136;47.032;15.398;2023-07-28T02:27:28;3.57;;;2.40;;
12145;SDS011;6136;47.032;15.398;2023-07-28T02:29:56;4.00;;;2.70;;
12145;SDS011;6136;47.032;15.398;2023-07-28T02:32:25;3.07;;;2.77;;
12145;SDS011;6136;47.032;15.398;2023-07-28T02:34:53;2.67;;;2.47;;
12145;SDS011;6136;47.032;15.398;2023-07-28T02:37:24;5.23;;;3.00;;
12145;SDS011;6136;47.032;15.398;2023-07-28T02:39:52;5.20;;;3.10;;
12145;SDS011;6136;47.032;15.398;2023-07-28T02:42:20;3.17;;;2.80;;
12145;SDS011;6136;47.032;15.398;2023-07-28T02:44:50;5.73;;;2.80;;
12145;SDS011;6136;47.032;15.398;2023-07-28T02:47:18;3.67;;;3.10;;
12145;SDS011;6136;47.032;15.398;2023-07-28T02:49:46;3.60;;;3.00;;
12145;SDS011;6136;47.032;15.398;2023-07-28T02:52:14;4.47;;;3.23;;
12145;SDS011;6136;47.032;15.398;2023-07-28T02:54:44;3.93;;;2.77;;
12145;SDS011;6136;47.032;15.398;2023-07-28T02:57:12;3.53;;;2.60;;
12145;SDS011;6136;47.032;15.398;2023-07-28T02:59:42;3.70;;;2.90;;
12145;SDS011;6136;47.032;15.398;2023-07-28T03:02:10;3.40;;;2.60;;
12145;SDS011;6136;47.032;15.398;2023-07-28T03:04:38;2.73;;;2.50;;
12145;SDS011;6136;47.032;15.398;2023-07-28T03:07:15;3.70;;;2.73;;
12145;SDS011;6136;47.032;15.398;2023-07-28T03:09:50;3.70;;;2.80;;
12145;SDS011;6136;47.032;15.398;2023-07-28T03:12:18;2.83;;;2.50;;
12145;SDS011;6136;47.032;15.398;2023-07-28T03:14:46;5.00;;;2.80;;
12145;SDS011;6136;47.032;15.398;2023-07-28T03:17:14;3.03;;;2.70;;
12145;SDS011;6136;47.032;15.398;2023-07-28T03:19:42;3.20;;;2.90;;
12145;SDS011;6136;47.032;15.398;2023-07-28T03:22:11;4.03;;;2.90;;
12145;SDS011;6136;47.032;15.398;2023-07-28T03:24:39;3.73;;;2.73;;
12145;SDS011;6136;47.032;15.398;2023-07-28T03:27:09;3.60;;;2.70;;
12145;SDS011;6136;47.032;15.398;2023-07-28T03:29:37;2.73;;;2.53;;
12145;SDS011;6136;47.032;15.398;2023-07-28T03:32:05;3.20;;;2.90;;
12145;SDS011;6136;47.032;15.398;2023-07-28T03:34:34;7.83;;;5.50;;
12145;SDS011;6136;47.032;15.398;2023-07-28T03:37:04;6.50;;;4.77;;
12145;SDS011;6136;47.032;15.398;2023-07-28T03:39:35;3.90;;;3.10;;
12145;SDS011;6136;47.032;15.398;2023-07-28T03:42:03;2.93;;;2.63;;
12145;SDS011;6136;47.032;15.398;2023-07-28T03:44:33;3.73;;;2.73;;
12145;SDS011;6136;47.032;15.398;2023-07-28T03:47:04;3.60;;;2.77;;
12145;SDS011;6136;47.032;15.398;2023-07-28T03:49:33;4.50;;;2.83;;
12145;SDS011;6136;47.032;15.398;2023-07-28T03:52:01;3.03;;;2.57;;
12145;SDS011;6136;47.032;15.398;2023-07-28T03:54:29;4.17;;;2.50;;
12145;SDS011;6136;47.032;15.398;2023-07-28T03:56:58;3.00;;;2.47;;
12145;SDS011;6136;47.032;15.398;2023-07-28T03:59:26;3.27;;;2.63;;
12145;SDS011;6136;47.032;15.398;2023-07-28T04:01:55;3.33;;;2.57;;
12145;SDS011;6136;47.032;15.398;2023-07-28T04:04:24;3.87;;;2.80;;
12145;SDS011;6136;47.032;15.398;2023-07-28T04:06:52;2.73;;;2.50;;
12145;SDS011;6136;47.032;15.398;2023-07-28T04:09:21;4.17;;;3.10;;
12145;SDS011;6136;47.032;15.398;2023-07-28T04:11:49;4.10;;;2.90;;
12145;SDS011;6136;47.032;15.398;2023-07-28T04:14:17;4.83;;;2.77;;
12145;SDS011;6136;47.032;15.398;2023-07-28T04:16:45;4.27;;;2.63;;
12145;SDS011;6136;47.032;15.398;2023-07-28T04:19:15;6.37;;;3.20;;
12145;SDS011;6136;47.032;15.398;2023-07-28T04:21:43;4.17;;;2.70;;
12145;SDS011;6136;47.032;15.398;2023-07-28T04:24:12;3.50;;;2.90;;
12145;SDS011;6136;47.032;15.398;2023-07-28T04:26:46;3.83;;;3.03;;
12145;SDS011;6136;47.032;15.398;2023-07-28T04:29:16;2.77;;;2.43;;
12145;SDS011;6136;47.032;15.398;2023-07-28T04:31:45;3.47;;;2.80;;
12145;SDS011;6136;47.032;15.398;2023-07-28T04:34:20;4.30;;;2.60;;
12145;SDS011;6136;47.032;15.398;2023-07-28T04:37:07;7.67;;;2.73;;
12145;SDS011;6136;47.032;15.398;2023-07-28T04:39:55;3.20;;;2.70;;
12145;SDS011;6136;47.032;15.398;2023-07-28T04:42:27;3.53;;;2.83;;
12145;SDS011;6136;47.032;15.398;2023-07-28T04:44:55;3.63;;;3.30;;
12145;SDS011;6136;47.032;15.398;2023-07-28T04:47:23;5.20;;;3.13;;
12145;SDS011;6136;47.032;15.398;2023-07-28T04:49:53;3.97;;;3.50;;
12145;SDS011;6136;47.032;15.398;2023-07-28T04:52:44;4.13;;;3.13;;
12145;SDS011;6136;47.032;15.398;2023-07-28T04:55:47;5.07;;;3.40;;
12145;SDS011;6136;47.032;15.398;2023-07-28T04:58:16;7.77;;;3.60;;
12145;SDS011;6136;47.032;15.398;2023-07-28T05:00:47;4.77;;;3.23;;
12145;SDS011;6136;47.032;15.398;2023-07-28T05:03:16;4.73;;;3.73;;
12145;SDS011;6136;47.032;15.398;2023-07-28T05:05:55;5.63;;;3.60;;
12145;SDS011;6136;47.032;15.398;2023-07-28T05:08:23;3.70;;;3.00;;
12145;SDS011;6136;47.032;15.398;2023-07-28T05:10:52;7.57;;;3.23;;
12145;SDS011;6136;47.032;15.398;2023-07-28T05:13:20;8.57;;;3.77;;
12145;SDS011;6136;47.032;15.398;2023-07-28T05:15:55;6.33;;;3.73;;
12145;SDS011;6136;47.032;15.398;2023-07-28T05:18:44;6.13;;;3.37;;
12145;SDS011;6136;47.032;15.398;2023-07-28T05:21:36;6.67;;;4.03;;
12145;SDS011;6136;47.032;15.398;2023-07-28T05:24:04;9.27;;;3.83;;
12145;SDS011;6136;47.032;15.398;2023-07-28T05:26:34;8.63;;;4.00;;
12145;SDS011;6136;47.032;15.398;2023-07-28T05:29:02;6.93;;;3.47;;
12145;SDS011;6136;47.032;15.398;2023-07-28T05:31:30;5.03;;;3.37;;
12145;SDS011;6136;47.032;15.398;2023-07-28T05:33:59;5.33;;;3.83;;
12145;SDS011;6136;47.032;15.398;2023-07-28T05:36:27;5.23;;;3.37;;
12145;SDS011;6136;47.032;15.398;2023-07-28T05:39:00;6.10;;;3.20;;
12145;SDS011;6136;47.032;15.398;2023-07-28T05:41:37;10.90;;;3.33;;
12145;SDS011;6136;47.032;15.398;2023-07-28T05:44:08;5.67;;;3.17;;
12145;SDS011;6136;47.032;15.398;2023-07-28T05:46:36;7.70;;;3.60;;
12145;SDS011;6136;47.032;15.398;2023-07-28T05:49:05;9.53;;;4.00;;
12145;SDS011;6136;47.032;15.398;2023-07-28T05:51:33;7.45;;;3.10;;
12145;SDS011;6136;47.032;15.398;2023-07-28T05:54:03;6.13;;;3.25;;
12145;SDS011;6136;47.032;15.398;2023-07-28T05:56:31;4.38;;;3.00;;
12145;SDS011;6136;47.032;15.398;2023-07-28T05:58:59;3.38;;;2.95;;
12145;SDS011;6136;47.032;15.398;2023-07-28T06:01:27;3.67;;;2.95;;
12145;SDS011;6136;47.032;15.398;2023-07-28T06:04:21;5.75;;;3.13;;
12145;SDS011;6136;47.032;15.398;2023-07-28T06:06:53;5.90;;;3.10;;
12145;SDS011;6136;47.032;15.398;2023-07-28T06:09:23;5.45;;;3.55;;
12145;SDS011;6136;47.032;15.398;2023-07-28T06:11:51;5.13;;;2.78;;
12145;SDS011;6136;47.032;15.398;2023-07-28T06:14:23;5.30;;;2.97;;
12145;SDS011;6136;47.032;15.398;2023-07-28T06:16:53;3.50;;;3.20;;
12145;SDS011;6136;47.032;15.398;2023-07-28T06:19:24;4.03;;;3.40;;
12145;SDS011;6136;47.032;15.398;2023-07-28T06:21:53;5.13;;;3.28;;
12145;SDS011;6136;47.032;15.398;2023-07-28T06:24:23;4.60;;;3.75;;
12145;SDS011;6136;47.032;15.398;2023-07-28T06:26:51;4.15;;;3.42;;
12145;SDS011;6136;47.032;15.398;2023-07-28T06:29:19;6.93;;;3.40;;
12145;SDS011;6136;47.032;15.398;2023-07-28T06:31:47;10.10;;;3.72;;
12145;SDS011;6136;47.032;15.398;2023-07-28T06:34:15;6.35;;;3.53;;
12145;SDS011;6136;47.032;15.398;2023-07-28T06:36:43;7.15;;;3.33;;
12145;SDS011;6136;47.032;15.398;2023-07-28T06:39:11;7.30;;;3.72;;
12145;SDS011;6136;47.032;15.398;2023-07-28T06:41:41;8.65;;;2.67;;
12145;SDS011;6136;47.032;15.398;2023-07-28T06:44:12;4.43;;;2.95;;
12145;SDS011;6136;47.032;15.398;2023-07-28T06:46:40;4.97;;;2.97;;
12145;SDS011;6136;47.032;15.398;2023-07-28T06:49:10;5.18;;;3.40;;
12145;SDS011;6136;47.032;15.398;2023-07-28T06:51:39;5.30;;;2.80;;
12145;SDS011;6136;47.032;15.398;2023-07-28T06:54:10;7.25;;;4.25;;
12145;SDS011;6136;47.032;15.398;2023-07-28T06:56:39;4.28;;;3.13;;
12145;SDS011;6136;47.032;15.398;2023-07-28T06:59:08;6.03;;;2.63;;
12145;SDS011;6136;47.032;15.398;2023-07-28T07:01:43;5.57;;;2.70;;
12145;SDS011;6136;47.032;15.398;2023-07-28T07:04:11;7.53;;;2.97;;
12145;SDS011;6136;47.032;15.398;2023-07-28T07:06:39;4.28;;;3.10;;
12145;SDS011;6136;47.032;15.398;2023-07-28T07:09:07;10.73;;;3.55;;
12145;SDS011;6136;47.032;15.398;2023-07-28T07:11:36;3.17;;;2.75;;
12145;SDS011;6136;47.032;15.398;2023-07-28T07:14:06;8.80;;;3.33;;
12145;SDS011;6136;47.032;15.398;2023-07-28T07:16:35;6.57;;;3.10;;
12145;SDS011;6136;47.032;15.398;2023-07-28T07:19:04;6.80;;;3.13;;
12145;SDS011;6136;47.032;15.398;2023-07-28T07:21:32;8.20;;;3.70;;
12145;SDS011;6136;47.032;15.398;2023-07-28T07:24:01;4.45;;;2.45;;
12145;SDS011;6136;47.032;15.398;2023-07-28T07:26:30;4.10;;;2.97;;
12145;SDS011;6136;47.032;15.398;2023-07-28T07:28:59;4.88;;;2.67;;
12145;SDS011;6136;47.032;15.398;2023-07-28T07:31:27;2.83;;;2.20;;
12145;SDS011;6136;47.032;15.398;2023-07-28T07:33:56;3.60;;;2.92;;
12145;SDS011;6136;47.032;15.398;2023-07-28T07:36:24;6.63;;;2.90;;
12145;SDS011;6136;47.032;15.398;2023-07-28T07:38:53;2.92;;;2.50;;
12145;SDS011;6136;47.032;15.398;2023-07-28T07:41:21;3.83;;;2.20;;
12145;SDS011;6136;47.032;15.398;2023-07-28T07:43:52;3.78;;;2.67;;
12145;SDS011;6136;47.032;15.398;2023-07-28T07:46:21;2.45;;;2.20;;
12145;SDS011;6136;47.032;15.398;2023-07-28T07:48:49;3.22;;;2.40;;
12145;SDS011;6136;47.032;15.398;2023-07-28T07:51:19;3.00;;;2.47;;
12145;SDS011;6136;47.032;15.398;2023-07-28T07:53:47;3.08;;;2.72;;
12145;SDS011;6136;47.032;15.398;2023-07-28T07:56:15;3.17;;;2.40;;
12145;SDS011;6136;47.032;15.398;2023-07-28T07:58:43;3.58;;;2.50;;
12145;SDS011;6136;47.032;15.398;2023-07-28T08:01:12;3.30;;;2.50;;
12145;SDS011;6136;47.032;15.398;2023-07-28T08:03:40;4.22;;;2.10;;
12145;SDS011;6136;47.032;15.398;2023-07-28T08:06:08;2.65;;;2.45;;
12145;SDS011;6136;47.032;15.398;2023-07-28T08:08:39;2.63;;;2.30;;
12145;SDS011;6136;47.032;15.398;2023-07-28T08:11:10;3.08;;;2.38;;
12145;SDS011;6136;47.032;15.398;2023-07-28T08:13:38;4.55;;;2.55;;
12145;SDS011;6136;47.032;15.398;2023-07-28T08:16:06;4.60;;;2.55;;
12145;SDS011;6136;47.032;15.398;2023-07-28T08:18:35;3.97;;;2.55;;
12145;SDS011;6136;47.032;15.398;2023-07-28T08:21:03;3.90;;;2.40;;
12145;SDS011;6136;47.032;15.398;2023-07-28T08:23:31;2.35;;;2.15;;
12145;SDS011;6136;47.032;15.398;2023-07-28T08:26:01;7.90;;;2.53;;
12145;SDS011;6136;47.032;15.398;2023-07-28T08:28:30;3.03;;;2.20;;
12145;SDS011;6136;47.032;15.398;2023-07-28T08:30:59;4.15;;;2.38;;
12145;SDS011;6136;47.032;15.398;2023-07-28T08:33:27;2.90;;;2.60;;
12145;SDS011;6136;47.032;15.398;2023-07-28T08:35:55;2.75;;;2.47;;
12145;SDS011;6136;47.032;15.398;2023-07-28T08:38:26;5.30;;;2.30;;
12145;SDS011;6136;47.032;15.398;2023-07-28T08:40:54;2.75;;;2.17;;
12145;SDS011;6136;47.032;15.398;2023-07-28T08:43:26;2.85;;;2.55;;
12145;SDS011;6136;47.032;15.398;2023-07-28T08:45:54;3.92;;;2.38;;
12145;SDS011;6136;47.032;15.398;2023-07-28T08:48:23;2.30;;;2.10;;
12145;SDS011;6136;47.032;15.398;2023-07-28T08:50:52;2.47;;;2.28;;
12145;SDS011;6136;47.032;15.398;2023-07-28T08:53:20;2.85;;;2.55;;
12145;SDS011;6136;47.032;15.398;2023-07-28T08:55:48;2.80;;;2.10;;
12145;SDS011;6136;47.032;15.398;2023-07-28T08:58:17;2.42;;;2.22;;
12145;SDS011;6136;47.032;15.398;2023-07-28T09:00:48;2.38;;;2.10;;
12145;SDS011;6136;47.032;15.398;2023-07-28T09:03:17;2.55;;;2.22;;
12145;SDS011;6136;47.032;15.398;2023-07-28T09:05:46;2.75;;;1.98;;
12145;SDS011;6136;47.032;15.398;2023-07-28T09:08:15;3.17;;;2.00;;
12145;SDS011;6136;47.032;15.398;2023-07-28T09:10:44;2.42;;;2.22;;
12145;SDS011;6136;47.032;15.398;2023-07-28T09:13:13;3.13;;;2.40;;
12145;SDS011;6136;47.032;15.398;2023-07-28T09:15:43;4.70;;;2.63;;
12145;SDS011;6136;47.032;15.398;2023-07-28T09:18:15;4.20;;;2.45;;
12145;SDS011;6136;47.032;15.398;2023-07-28T09:20:43;2.83;;;2.58;;
12145;SDS011;6136;47.032;15.398;2023-07-28T09:23:13;2.58;;;2.08;;
12145;SDS011;6136;47.032;15.398;2023-07-28T09:25:42;3.55;;;2.40;;
12145;SDS011;6136;47.032;15.398;2023-07-28T09:28:11;2.40;;;2.20;;
12145;SDS011;6136;47.032;15.398;2023-07-28T09:30:44;3.95;;;2.10;;
12145;SDS011;6136;47.032;15.398;2023-07-28T09:33:15;3.15;;;2.35;;
12145;SDS011;6136;47.032;15.398;2023-07-28T09:35:56;2.53;;;2.13;;
12145;SDS011;6136;47.032;15.398;2023-07-28T09:38:25;2.65;;;2.20;;
12145;SDS011;6136;47.032;15.398;2023-07-28T09:40:56;3.15;;;2.00;;
12145;SDS011;6136;47.032;15.398;2023-07-28T09:43:26;5.32;;;2.42;;
12145;SDS011;6136;47.032;15.398;2023-07-28T09:45:54;2.40;;;2.20;;
12145;SDS011;6136;47.032;15.398;2023-07-28T09:48:24;2.80;;;2.60;;
12145;SDS011;6136;47.032;15.398;2023-07-28T09:50:57;2.75;;;2.50;;
12145;SDS011;6136;47.032;15.398;2023-07-28T09:53:27;2.35;;;2.15;;
12145;SDS011;6136;47.032;15.398;2023-07-28T09:55:56;2.42;;;2.22;;
12145;SDS011;6136;47.032;15.398;2023-07-28T09:58:26;8.05;;;2.30;;
12145;SDS011;6136;47.032;15.398;2023-07-28T10:00:58;2.15;;;1.95;;
12145;SDS011;6136;47.032;15.398;2023-07-28T10:03:28;3.25;;;2.50;;
12145;SDS011;6136;47.032;15.398;2023-07-28T10:05:57;2.35;;;2.15;;
12145;SDS011;6136;47.032;15.398;2023-07-28T10:08:25;2.42;;;1.98;;
12145;SDS011;6136;47.032;15.398;2023-07-28T10:10:53;2.35;;;2.15;;
12145;SDS011;6136;47.032;15.398;2023-07-28T10:13:22;2.97;;;2.67;;
12145;SDS011;6136;47.032;15.398;2023-07-28T10:15:50;3.50;;;2.45;;
12145;SDS011;6136;47.032;15.398;2023-07-28T10:18:19;3.47;;;2.47;;
12145;SDS011;6136;47.032;15.398;2023-07-28T10:20:50;4.15;;;2.60;;
12145;SDS011;6136;47.032;15.398;2023-07-28T10:23:19;2.50;;;2.30;;
12145;SDS011;6136;47.032;15.398;2023-07-28T10:25:55;3.15;;;2.55;;
12145;SDS011;6136;47.032;15.398;2023-07-28T10:28:25;4.88;;;2.78;;
12145;SDS011;6136;47.032;15.398;2023-07-28T10:30:55;5.28;;;2.42;;
12145;SDS011;6136;47.032;15.398;2023-07-28T10:33:30;5.82;;;2.33;;
12145;SDS011;6136;47.032;15.398;2023-07-28T10:36:09;3.28;;;2.78;;
12145;SDS011;6136;47.032;15.398;2023-07-28T10:38:40;4.35;;;2.50;;
12145;SDS011;6136;47.032;15.398;2023-07-28T10:41:11;3.13;;;2.40;;
12145;SDS011;6136;47.032;15.398;2023-07-28T10:43:41;3.20;;;2.30;;
12145;SDS011;6136;47.032;15.398;2023-07-28T10:46:11;3.88;;;2.15;;
12145;SDS011;6136;47.032;15.398;2023-07-28T10:48:41;2.63;;;2.38;;
12145;SDS011;6136;47.032;15.398;2023-07-28T10:51:15;2.47;;;2.28;;
12145;SDS011;6136;47.032;15.398;2023-07-28T10:53:49;3.05;;;2.30;;
12145;SDS011;6136;47.032;15.398;2023-07-28T10:56:18;3.53;;;2.25;;
12145;SDS011;6136;47.032;15.398;2023-07-28T10:58:46;4.93;;;2.70;;
12145;SDS011;6136;47.032;15.398;2023-07-28T11:01:14;2.60;;;2.30;;
12145;SDS011;6136;47.032;15.398;2023-07-28T11:03:45;1.85;;;1.73;;
12145;SDS011;6136;47.032;15.398;2023-07-28T11:06:16;2.70;;;2.50;;
12145;SDS011;6136;47.032;15.398;2023-07-28T11:08:44;2.85;;;2.30;;
12145;SDS011;6136;47.032;15.398;2023-07-28T11:11:12;3.15;;;2.80;;
12145;SDS011;6136;47.032;15.398;2023-07-28T11:13:41;3.53;;;2.13;;
12145;SDS011;6136;47.032;15.398;2023-07-28T11:16:09;4.75;;;2.60;;
12145;SDS011;6136;47.032;15.398;2023-07-28T11:18:38;3.85;;;2.30;;
12145;SDS011;6136;47.032;15.398;2023-07-28T11:21:06;2.80;;;2.60;;
12145;SDS011;6136;47.032;15.398;2023-07-28T11:23:36;2.30;;;2.10;;
12145;SDS011;6136;47.032;15.398;2023-07-28T11:26:06;4.13;;;2.13;;
12145;SDS011;6136;47.032;15.398;2023-07-28T11:28:38;2.13;;;2.03;;
12145;SDS011;6136;47.032;15.398;2023-07-28T11:31:06;7.15;;;2.15;;
12145;SDS011;6136;47.032;15.398;2023-07-28T11:33:35;2.95;;;2.67;;
12145;SDS011;6136;47.032;15.398;2023-07-28T11:36:04;2.53;;;2.33;;
12145;SDS011;6136;47.032;15.398;2023-07-28T11:38:32;2.40;;;2.20;;
12145;SDS011;6136;47.032;15.398;2023-07-28T11:41:04;6.28;;;2.22;;
12145;SDS011;6136;47.032;15.398;2023-07-28T11:43:32;2.97;;;2.08;;
12145;SDS011;6136;47.032;15.398;2023-07-28T11:46:01;2.35;;;2.15;;
12145;SDS011;6136;47.032;15.398;2023-07-28T11:48:29;2.40;;;2.20;;
12145;SDS011;6136;47.032;15.398;2023-07-28T11:50:58;3.03;;;2.33;;
12145;SDS011;6136;47.032;15.398;2023-07-28T11:53:27;2.55;;;2.35;;
12145;SDS011;6136;47.032;15.398;2023-07-28T11:56:01;2.88;;;2.50;;
12145;SDS011;6136;47.032;15.398;2023-07-28T11:58:31;6.05;;;2.90;;
12145;SDS011;6136;47.032;15.398;2023-07-28T12:00:59;4.65;;;2.70;;
12145;SDS011;6136;47.032;15.398;2023-07-28T12:03:35;4.00;;;2.30;;
12145;SDS011;6136;47.032;15.398;2023-07-28T12:06:05;2.60;;;2.30;;
12145;SDS011;6136;47.032;15.398;2023-07-28T12:08:39;4.32;;;2.50;;
12145;SDS011;6136;47.032;15.398;2023-07-28T12:11:11;3.67;;;2.33;;
12145;SDS011;6136;47.032;15.398;2023-07-28T12:13:49;2.58;;;2.38;;
12145;SDS011;6136;47.032;15.398;2023-07-28T12:16:39;5.50;;;2.60;;
12145;SDS011;6136;47.032;15.398;2023-07-28T12:19:11;2.83;;;2.50;;
12145;SDS011;6136;47.032;15.398;2023-07-28T12:21:39;2.53;;;2.33;;
12145;SDS011;6136;47.032;15.398;2023-07-28T12:24:08;5.10;;;2.33;;
12145;SDS011;6136;47.032;15.398;2023-07-28T12:26:36;4.15;;;2.63;;
12145;SDS011;6136;47.032;15.398;2023-07-28T12:29:07;2.42;;;2.22;;
12145;SDS011;6136;47.032;15.398;2023-07-28T12:31:37;2.72;;;2.53;;
12145;SDS011;6136;47.032;15.398;2023-07-28T12:34:08;5.40;;;2.25;;
12145;SDS011;6136;47.032;15.398;2023-07-28T12:36:36;2.25;;;2.00;;
12145;SDS011;6136;47.032;15.398;2023-07-28T12:39:08;6.35;;;2.55;;
12145;SDS011;6136;47.032;15.398;2023-07-28T12:41:39;2.65;;;2.45;;
12145;SDS011;6136;47.032;15.398;2023-07-28T12:44:10;5.13;;;2.63;;
12145;SDS011;6136;47.032;15.398;2023-07-28T12:46:41;2.53;;;2.33;;
12145;SDS011;6136;47.032;15.398;2023-07-28T12:49:10;3.03;;;2.45;;
12145;SDS011;6136;47.032;15.398;2023-07-28T12:51:46;2.80;;;2.50;;
12145;SDS011;6136;47.032;15.398;2023-07-28T12:54:18;3.53;;;2.67;;
12145;SDS011;6136;47.032;15.398;2023-07-28T12:56:46;3.10;;;2.80;;
12145;SDS011;6136;47.032;15.398;2023-07-28T12:59:36;5.95;;;2.53;;
12145;SDS011;6136;47.032;15.398;2023-07-28T13:02:24;2.78;;;2.58;;
12145;SDS011;6136;47.032;15.398;2023-07-28T13:04:52;3.00;;;2.70;;
12145;SDS011;6136;47.032;15.398;2023-07-28T13:07:20;5.28;;;2.50;;
12145;SDS011;6136;47.032;15.398;2023-07-28T13:09:52;2.15;;;1.90;;
12145;SDS011;6136;47.032;15.398;2023-07-28T13:12:20;2.80;;;2.60;;
12145;SDS011;6136;47.032;15.398;2023-07-28T13:14:53;2.75;;;2.55;;
12145;SDS011;6136;47.032;15.398;2023-07-28T13:17:21;2.95;;;2.47;;
12145;SDS011;6136;47.032;15.398;2023-07-28T13:19:50;3.90;;;2.50;;
12145;SDS011;6136;47.032;15.398;2023-07-28T13:22:18;3.88;;;2.78;;
12145;SDS011;6136;47.032;15.398;2023-07-28T13:24:46;3.25;;;2.63;;
12145;SDS011;6136;47.032;15.398;2023-07-28T13:27:14;2.47;;;2.28;;
12145;SDS011;6136;47.032;15.398;2023-07-28T13:29:43;4.78;;;2.50;;
12145;SDS011;6136;47.032;15.398;2023-07-28T13:32:22;5.70;;;2.60;;
12145;SDS011;6136;47.032;15.398;2023-07-28T13:34:51;4.50;;;2.72;;
12145;SDS011;6136;47.032;15.398;2023-07-28T13:37:19;2.83;;;2.55;;
12145;SDS011;6136;47.032;15.398;2023-07-28T13:39:47;3.20;;;2.80;;
12145;SDS011;6136;47.032;15.398;2023-07-28T13:42:16;3.00;;;2.70;;
12145;SDS011;6136;47.032;15.398;2023-07-28T13:44:44;3.90;;;3.03;;
12145;SDS011;6136;47.032;15.398;2023-07-28T13:47:25;5.07;;;3.13;;
12145;SDS011;6136;47.032;15.398;2023-07-28T13:49:53;3.05;;;2.47;;
12145;SDS011;6136;47.032;15.398;2023-07-28T13:52:21;4.35;;;2.65;;
12145;SDS011;6136;47.032;15.398;2023-07-28T13:54:49;4.32;;;2.63;;
12145;SDS011;6136;47.032;15.398;2023-07-28T13:57:20;3.22;;;2.67;;
12145;SDS011;6136;47.032;15.398;2023-07-28T13:59:48;4.18;;;2.80;;
12145;SDS011;6136;47.032;15.398;2023-07-28T14:02:16;2.60;;;2.40;;
12145;SDS011;6136;47.032;15.398;2023-07-28T14:04:46;4.32;;;2.55;;
12145;SDS011;6136;47.032;15.398;2023-07-28T14:07:15;4.82;;;2.65;;
12145;SDS011;6136;47.032;15.398;2023-07-28T14:09:43;3.42;;;2.35;;
12145;SDS011;6136;47.032;15.398;2023-07-28T14:12:11;2.60;;;2.40;;
12145;SDS011;6136;47.032;15.398;2023-07-28T14:14:39;2.70;;;2.50;;
12145;SDS011;6136;47.032;15.398;2023-07-28T14:17:07;3.30;;;3.00;;
12145;SDS011;6136;47.032;15.398;2023-07-28T14:19:37;5.45;;;2.50;;
12145;SDS011;6136;47.032;15.398;2023-07-28T14:22:08;2.47;;;2.20;;
12145;SDS011;6136;47.032;15.398;2023-07-28T14:24:36;2.60;;;2.40;;
12145;SDS011;6136;47.032;15.398;2023-07-28T14:27:04;4.47;;;2.63;;
12145;SDS011;6136;47.032;15.398;2023-07-28T14:29:33;2.95;;;2.60;;
12145;SDS011;6136;47.032;15.398;2023-07-28T14:32:01;3.33;;;2.85;;
12145;SDS011;6136;47.032;15.398;2023-07-28T14:34:29;3.95;;;2.80;;
12145;SDS011;6136;47.032;15.398;2023-07-28T14:36:57;2.50;;;2.30;;
12145;SDS011;6136;47.032;15.398;2023-07-28T14:39:27;2.70;;;2.47;;
12145;SDS011;6136;47.032;15.398;2023-07-28T14:41:55;2.80;;;2.55;;
12145;SDS011;6136;47.032;15.398;2023-07-28T14:44:23;3.20;;;2.45;;
12145;SDS011;6136;47.032;15.398;2023-07-28T14:46:51;2.45;;;2.25;;
12145;SDS011;6136;47.032;15.398;2023-07-28T14:49:19;3.08;;;2.63;;
12145;SDS011;6136;47.032;15.398;2023-07-28T14:51:47;3.25;;;2.40;;
12145;SDS011;6136;47.032;15.398;2023-07-28T14:54:15;3.05;;;2.50;;
12145;SDS011;6136;47.032;15.398;2023-07-28T14:56:46;3.42;;;2.60;;
12145;SDS011;6136;47.032;15.398;2023-07-28T14:59:14;5.10;;;2.70;;
12145;SDS011;6136;47.032;15.398;2023-07-28T15:01:44;2.50;;;2.30;;
12145;SDS011;6136;47.032;15.398;2023-07-28T15:04:13;2.60;;;2.40;;